航空気象通報

ウインドサーファーのための航空気象通報による風予報です。

9/20-9/22の航空気象通報

2017年09月20日 21時53分08秒 | TAF
羽田空港
TAF RJTT 201105Z 2012/2118 23018KT 9999 FEW030
BECMG 2014/2016 35008KT
BECMG 2103/2106 12008KT
BECMG 2106/2109 18012KT
BECMG 2112/2115 12008KT
日本時間20日21-23時:230度から18ノットの風
23時-21日01時:風が変化
01-12時:350度から8ノットの風
12-15時:風が変化
15時:120度から8ノットの風
15-18時:風が変化
18-21時:180度から12ノットの風
21-24時:風が変化
22日00-03時:120度から8ノットの風


静岡空港
TAF RJNS 201107Z 2012/2118 27012KT 9999 FEW030 SCT050
BECMG 2100/2103 14006KT
BECMG 2109/2112 35004KT
日本時間20日21時-21日09時:270度から12ノットの風
09-12時:風が変化
12-18時:140度から6ノットの風
18-21時:風が変化
21時-22日03時:350度から4ノットの風


福岡空港
TAF RJFF 201106Z 2012/2118 14005KT 8000 FEW040
BECMG 2103/2106 32008KT
BECMG 2109/2112 15004KT
日本時間20日21時-21日12時:140度から5ノットの風
12-15時:風が変化
15-18時:320度から8ノットの風
18-21時:風が変化
21時-22日03時:150度から4ノットの風


那覇空港
TAF ROAH 201106Z 2012/2118 13005KT 9999 FEW015 SCT025
日本時間20日21時-22日03時:130度から5ノットの風


石垣空港
TAF ROIG 201108Z 2012/2118 11007KT 9999 FEW010 SCT020
BECMG 2016/2018 15009KT
BECMG 2109/2112 11004KT
日本時間20日21時-21日01時:110度から7ノットの風
01-03時:風が変化
03-18時:150度から9ノットの風
18-21時:風が変化
21時-22日03時:110度から4ノットの風


マウイのカフルイ空港
PHOG 201125Z 2012/2112 05010KT P6SM VCSH FEW030 BKN060
FM201900 05014G22KT P6SM VCSH FEW030 BKN060
FM202100 05018G26KT P6SM FEW030 SCT060
FM210400 05012G20KT P6SM VCSH FEW030 SCT060
FM210700 05010KT P6SM VCSH FEW030 SCT060 AMD LTD TO VIS AND WIND TIL 201600
ハワイ時間20日02-09時:050度から10ノットの風
09-11時:050度から14ノット、突風22ノット

11-18時:050度から18ノット、突風26ノット
18-21時:050度から12ノット、突風20ノット
21時-21日02時:050度から10ノットの風


サイパン空港
TAF PGSN 201129Z 2012/2112 15008KT P6SM VCSH SCT025 SCT060 BKN140
FM202300 12012KT P6SM VCSH SCT025 SCT060
マリアナ時間20日22時-21日09時:150度から8ノットの風
09-22時:120度から10ノットの風

ジャンル:
お天気
コメント   この記事についてブログを書く
この記事をはてなブックマークに追加
« 9/19-9/21の航空気象通報 | トップ | 9/21-9/23の航空気象通報 »
最近の画像もっと見る

コメントを投稿

ブログ作成者から承認されるまでコメントは反映されません。

TAF」カテゴリの最新記事

トラックバック

この記事のトラックバック  Ping-URL
ブログ作成者から承認されるまでトラックバックは反映されません。
  • 30日以上前の記事に対するトラックバックは受け取らないよう設定されております。
  • 送信元の記事内容が半角英数のみのトラックバックは受け取らないよう設定されております。
  • このブログへのリンクがない記事からのトラックバックは受け取らないよう設定されております。
  • ※ブログ管理者のみ、編集画面で設定の変更が可能です。